sensor_id;sensor_type;location;lat;lon;timestamp;P1;durP1;ratioP1;P2;durP2;ratioP2
77415;SDS011;66489;49.230;8.520;2023-02-19T05:02:31;6.63;;;3.58;;
77415;SDS011;66489;49.230;8.520;2023-02-19T05:04:58;6.00;;;3.60;;
77415;SDS011;66489;49.230;8.520;2023-02-19T05:07:24;6.15;;;3.75;;
77415;SDS011;66489;49.230;8.520;2023-02-19T05:09:51;5.80;;;3.33;;
77415;SDS011;66489;49.230;8.520;2023-02-19T05:12:17;7.68;;;3.70;;
77415;SDS011;66489;49.230;8.520;2023-02-19T05:14:44;6.57;;;3.72;;
77415;SDS011;66489;49.230;8.520;2023-02-19T05:17:10;6.00;;;3.60;;
77415;SDS011;66489;49.230;8.520;2023-02-19T05:19:37;6.40;;;3.80;;
77415;SDS011;66489;49.230;8.520;2023-02-19T05:22:03;7.80;;;3.50;;
77415;SDS011;66489;49.230;8.520;2023-02-19T05:24:30;6.47;;;3.78;;
77415;SDS011;66489;49.230;8.520;2023-02-19T05:26:56;6.07;;;3.42;;
77415;SDS011;66489;49.230;8.520;2023-02-19T05:29:23;7.00;;;3.80;;
77415;SDS011;66489;49.230;8.520;2023-02-19T05:31:49;5.80;;;3.50;;
77415;SDS011;66489;49.230;8.520;2023-02-19T05:34:16;8.02;;;3.90;;
77415;SDS011;66489;49.230;8.520;2023-02-19T05:36:42;6.45;;;3.72;;
77415;SDS011;66489;49.230;8.520;2023-02-19T05:39:10;7.13;;;4.20;;
77415;SDS011;66489;49.230;8.520;2023-02-19T05:41:37;6.15;;;3.67;;
77415;SDS011;66489;49.230;8.520;2023-02-19T05:44:04;6.53;;;3.72;;
77415;SDS011;66489;49.230;8.520;2023-02-19T05:46:30;6.28;;;4.00;;
77415;SDS011;66489;49.230;8.520;2023-02-19T05:48:57;6.00;;;3.90;;
77415;SDS011;66489;49.230;8.520;2023-02-19T05:51:24;6.30;;;3.75;;
77415;SDS011;66489;49.230;8.520;2023-02-19T05:53:52;6.30;;;3.60;;
77415;SDS011;66489;49.230;8.520;2023-02-19T05:58:51;7.03;;;3.70;;
77415;SDS011;66489;49.230;8.520;2023-02-19T06:01:20;5.63;;;3.30;;
77415;SDS011;66489;49.230;8.520;2023-02-19T06:03:47;5.78;;;3.60;;
77415;SDS011;66489;49.230;8.520;2023-02-19T06:06:15;7.53;;;4.03;;
77415;SDS011;66489;49.230;8.520;2023-02-19T06:08:43;6.00;;;3.70;;
77415;SDS011;66489;49.230;8.520;2023-02-19T06:11:09;6.43;;;3.92;;
77415;SDS011;66489;49.230;8.520;2023-02-19T06:13:36;6.40;;;3.90;;
77415;SDS011;66489;49.230;8.520;2023-02-19T06:16:03;7.82;;;4.20;;
77415;SDS011;66489;49.230;8.520;2023-02-19T06:18:30;6.68;;;3.85;;
77415;SDS011;66489;49.230;8.520;2023-02-19T06:21:01;6.82;;;3.83;;
77415;SDS011;66489;49.230;8.520;2023-02-19T06:23:28;6.65;;;3.83;;
77415;SDS011;66489;49.230;8.520;2023-02-19T06:26:41;6.80;;;4.15;;
77415;SDS011;66489;49.230;8.520;2023-02-19T06:28:43;7.95;;;4.15;;
77415;SDS011;66489;49.230;8.520;2023-02-19T06:31:10;7.38;;;4.50;;
77415;SDS011;66489;49.230;8.520;2023-02-19T06:33:38;6.82;;;4.20;;
77415;SDS011;66489;49.230;8.520;2023-02-19T06:36:06;7.47;;;3.83;;
77415;SDS011;66489;49.230;8.520;2023-02-19T06:38:36;6.80;;;4.13;;
77415;SDS011;66489;49.230;8.520;2023-02-19T06:41:03;7.15;;;4.38;;
77415;SDS011;66489;49.230;8.520;2023-02-19T06:43:31;6.97;;;4.35;;
77415;SDS011;66489;49.230;8.520;2023-02-19T06:45:58;15.35;;;10.77;;
77415;SDS011;66489;49.230;8.520;2023-02-19T06:48:26;9.07;;;5.82;;
77415;SDS011;66489;49.230;8.520;2023-02-19T06:50:54;8.10;;;4.70;;
77415;SDS011;66489;49.230;8.520;2023-02-19T06:53:21;7.63;;;4.40;;
77415;SDS011;66489;49.230;8.520;2023-02-19T06:55:58;6.78;;;4.32;;
77415;SDS011;66489;49.230;8.520;2023-02-19T06:58:26;8.15;;;4.50;;
77415;SDS011;66489;49.230;8.520;2023-02-19T07:00:53;6.47;;;4.18;;
77415;SDS011;66489;49.230;8.520;2023-02-19T07:03:20;7.60;;;4.40;;
77415;SDS011;66489;49.230;8.520;2023-02-19T07:05:47;9.32;;;5.53;;
77415;SDS011;66489;49.230;8.520;2023-02-19T07:08:13;8.70;;;5.18;;
77415;SDS011;66489;49.230;8.520;2023-02-19T07:10:43;7.57;;;4.77;;
77415;SDS011;66489;49.230;8.520;2023-02-19T07:13:10;7.68;;;4.97;;
77415;SDS011;66489;49.230;8.520;2023-02-19T07:15:36;7.30;;;3.97;;
77415;SDS011;66489;49.230;8.520;2023-02-19T07:18:03;7.72;;;4.40;;
77415;SDS011;66489;49.230;8.520;2023-02-19T07:20:32;7.72;;;4.40;;
77415;SDS011;66489;49.230;8.520;2023-02-19T07:22:58;8.23;;;4.65;;
77415;SDS011;66489;49.230;8.520;2023-02-19T07:25:25;7.15;;;4.30;;
77415;SDS011;66489;49.230;8.520;2023-02-19T07:27:51;7.47;;;4.40;;
77415;SDS011;66489;49.230;8.520;2023-02-19T07:30:18;7.20;;;4.07;;
77415;SDS011;66489;49.230;8.520;2023-02-19T07:32:45;10.25;;;4.65;;
77415;SDS011;66489;49.230;8.520;2023-02-19T07:35:11;7.57;;;4.55;;
77415;SDS011;66489;49.230;8.520;2023-02-19T07:37:39;8.70;;;4.25;;
77415;SDS011;66489;49.230;8.520;2023-02-19T07:40:06;7.50;;;4.25;;
77415;SDS011;66489;49.230;8.520;2023-02-19T07:42:33;7.10;;;4.43;;
77415;SDS011;66489;49.230;8.520;2023-02-19T07:44:59;7.45;;;4.38;;
77415;SDS011;66489;49.230;8.520;2023-02-19T07:47:26;6.80;;;4.00;;
77415;SDS011;66489;49.230;8.520;2023-02-19T07:49:52;6.70;;;4.20;;
77415;SDS011;66489;49.230;8.520;2023-02-19T07:52:20;7.20;;;4.30;;
77415;SDS011;66489;49.230;8.520;2023-02-19T07:54:47;8.48;;;4.00;;
77415;SDS011;66489;49.230;8.520;2023-02-19T07:57:13;6.85;;;4.07;;
77415;SDS011;66489;49.230;8.520;2023-02-19T07:59:40;7.35;;;4.38;;
77415;SDS011;66489;49.230;8.520;2023-02-19T08:02:16;7.88;;;4.30;;
77415;SDS011;66489;49.230;8.520;2023-02-19T08:05:02;6.72;;;4.50;;
77415;SDS011;66489;49.230;8.520;2023-02-19T08:07:31;6.45;;;3.97;;
77415;SDS011;66489;49.230;8.520;2023-02-19T08:09:58;7.65;;;4.03;;
77415;SDS011;66489;49.230;8.520;2023-02-19T08:12:43;6.68;;;4.30;;
77415;SDS011;66489;49.230;8.520;2023-02-19T08:15:28;8.73;;;4.38;;
77415;SDS011;66489;49.230;8.520;2023-02-19T08:17:55;9.05;;;5.38;;
77415;SDS011;66489;49.230;8.520;2023-02-19T08:20:21;8.15;;;4.47;;
77415;SDS011;66489;49.230;8.520;2023-02-19T08:22:48;9.27;;;4.88;;
77415;SDS011;66489;49.230;8.520;2023-02-19T08:25:14;10.40;;;5.68;;
77415;SDS011;66489;49.230;8.520;2023-02-19T08:27:41;8.63;;;4.95;;
77415;SDS011;66489;49.230;8.520;2023-02-19T08:30:08;8.48;;;4.13;;
77415;SDS011;66489;49.230;8.520;2023-02-19T08:32:35;6.18;;;3.78;;
77415;SDS011;66489;49.230;8.520;2023-02-19T08:35:01;5.80;;;3.33;;
77415;SDS011;66489;49.230;8.520;2023-02-19T08:37:30;4.70;;;3.00;;
77415;SDS011;66489;49.230;8.520;2023-02-19T08:39:57;5.55;;;3.05;;
77415;SDS011;66489;49.230;8.520;2023-02-19T08:42:23;5.10;;;3.03;;
77415;SDS011;66489;49.230;8.520;2023-02-19T08:44:50;5.65;;;3.13;;
77415;SDS011;66489;49.230;8.520;2023-02-19T08:47:16;6.57;;;3.33;;
77415;SDS011;66489;49.230;8.520;2023-02-19T08:49:43;5.57;;;3.00;;
77415;SDS011;66489;49.230;8.520;2023-02-19T08:52:09;5.68;;;3.28;;
77415;SDS011;66489;49.230;8.520;2023-02-19T08:54:36;5.72;;;3.47;;
77415;SDS011;66489;49.230;8.520;2023-02-19T08:57:02;7.55;;;3.75;;
77415;SDS011;66489;49.230;8.520;2023-02-19T08:59:30;6.53;;;3.00;;
77415;SDS011;66489;49.230;8.520;2023-02-19T09:01:57;5.53;;;3.10;;
77415;SDS011;66489;49.230;8.520;2023-02-19T09:04:24;5.95;;;3.20;;
77415;SDS011;66489;49.230;8.520;2023-02-19T09:06:51;9.88;;;4.50;;
77415;SDS011;66489;49.230;8.520;2023-02-19T09:09:17;7.05;;;3.95;;
77415;SDS011;66489;49.230;8.520;2023-02-19T09:11:44;7.20;;;4.28;;
77415;SDS011;66489;49.230;8.520;2023-02-19T09:14:14;5.97;;;3.28;;
77415;SDS011;66489;49.230;8.520;2023-02-19T09:16:40;6.50;;;3.55;;
77415;SDS011;66489;49.230;8.520;2023-02-19T09:19:07;7.75;;;5.00;;
77415;SDS011;66489;49.230;8.520;2023-02-19T09:21:33;6.53;;;3.28;;
77415;SDS011;66489;49.230;8.520;2023-02-19T09:24:00;5.72;;;3.03;;
77415;SDS011;66489;49.230;8.520;2023-02-19T09:26:26;8.63;;;3.50;;
77415;SDS011;66489;49.230;8.520;2023-02-19T09:28:53;5.88;;;3.20;;
77415;SDS011;66489;49.230;8.520;2023-02-19T09:31:19;6.07;;;3.08;;
77415;SDS011;66489;49.230;8.520;2023-02-19T09:33:47;4.30;;;2.63;;
77415;SDS011;66489;49.230;8.520;2023-02-19T09:36:14;5.25;;;3.10;;
77415;SDS011;66489;49.230;8.520;2023-02-19T09:38:41;6.28;;;2.90;;
77415;SDS011;66489;49.230;8.520;2023-02-19T09:41:13;6.40;;;3.60;;
77415;SDS011;66489;49.230;8.520;2023-02-19T09:43:50;7.93;;;3.67;;
77415;SDS011;66489;49.230;8.520;2023-02-19T09:46:37;6.25;;;3.35;;
77415;SDS011;66489;49.230;8.520;2023-02-19T09:49:12;9.02;;;3.65;;
77415;SDS011;66489;49.230;8.520;2023-02-19T09:51:40;5.93;;;3.40;;
77415;SDS011;66489;49.230;8.520;2023-02-19T09:54:13;6.35;;;2.70;;
77415;SDS011;66489;49.230;8.520;2023-02-19T09:56:46;8.50;;;3.60;;
77415;SDS011;66489;49.230;8.520;2023-02-19T09:59:16;6.45;;;3.65;;
77415;SDS011;66489;49.230;8.520;2023-02-19T10:01:51;6.57;;;3.00;;
77415;SDS011;66489;49.230;8.520;2023-02-19T10:04:22;6.50;;;2.90;;
77415;SDS011;66489;49.230;8.520;2023-02-19T10:06:49;7.30;;;3.35;;
77415;SDS011;66489;49.230;8.520;2023-02-19T10:09:18;6.25;;;2.72;;
77415;SDS011;66489;49.230;8.520;2023-02-19T10:11:48;6.47;;;3.47;;
77415;SDS011;66489;49.230;8.520;2023-02-19T10:14:16;6.43;;;3.40;;
77415;SDS011;66489;49.230;8.520;2023-02-19T10:16:46;5.47;;;3.10;;
77415;SDS011;66489;49.230;8.520;2023-02-19T10:19:13;7.88;;;3.53;;
77415;SDS011;66489;49.230;8.520;2023-02-19T10:21:40;7.57;;;4.03;;
77415;SDS011;66489;49.230;8.520;2023-02-19T10:24:07;7.78;;;3.90;;
77415;SDS011;66489;49.230;8.520;2023-02-19T10:26:40;6.30;;;3.30;;
77415;SDS011;66489;49.230;8.520;2023-02-19T10:29:06;6.22;;;3.03;;
77415;SDS011;66489;49.230;8.520;2023-02-19T10:31:34;7.00;;;3.40;;
77415;SDS011;66489;49.230;8.520;2023-02-19T10:34:01;6.32;;;3.15;;
77415;SDS011;66489;49.230;8.520;2023-02-19T10:36:29;5.40;;;2.97;;
77415;SDS011;66489;49.230;8.520;2023-02-19T10:38:59;6.32;;;2.88;;
77415;SDS011;66489;49.230;8.520;2023-02-19T10:41:26;6.05;;;2.78;;
77415;SDS011;66489;49.230;8.520;2023-02-19T10:43:55;8.45;;;3.17;;
77415;SDS011;66489;49.230;8.520;2023-02-19T10:46:24;6.97;;;3.55;;
77415;SDS011;66489;49.230;8.520;2023-02-19T10:48:53;5.40;;;3.35;;
77415;SDS011;66489;49.230;8.520;2023-02-19T10:51:36;5.68;;;3.00;;
77415;SDS011;66489;49.230;8.520;2023-02-19T10:54:18;6.25;;;3.13;;
77415;SDS011;66489;49.230;8.520;2023-02-19T10:56:46;5.35;;;3.00;;
77415;SDS011;66489;49.230;8.520;2023-02-19T10:59:23;8.13;;;3.15;;
77415;SDS011;66489;49.230;8.520;2023-02-19T11:02:00;9.38;;;4.47;;
77415;SDS011;66489;49.230;8.520;2023-02-19T11:04:30;6.47;;;2.95;;
77415;SDS011;66489;49.230;8.520;2023-02-19T11:07:11;8.77;;;3.70;;
77415;SDS011;66489;49.230;8.520;2023-02-19T11:09:41;6.05;;;3.03;;
77415;SDS011;66489;49.230;8.520;2023-02-19T11:12:11;6.32;;;3.00;;
77415;SDS011;66489;49.230;8.520;2023-02-19T11:14:42;5.90;;;3.00;;
77415;SDS011;66489;49.230;8.520;2023-02-19T11:17:19;8.73;;;2.90;;
77415;SDS011;66489;49.230;8.520;2023-02-19T11:19:51;7.25;;;3.85;;
77415;SDS011;66489;49.230;8.520;2023-02-19T11:30:34;7.82;;;3.72;;
77415;SDS011;66489;49.230;8.520;2023-02-19T11:35:50;6.05;;;3.10;;
77415;SDS011;66489;49.230;8.520;2023-02-19T11:46:49;7.05;;;3.58;;
77415;SDS011;66489;49.230;8.520;2023-02-19T11:57:58;8.40;;;4.85;;
77415;SDS011;66489;49.230;8.520;2023-02-19T12:00:51;7.38;;;4.30;;
77415;SDS011;66489;49.230;8.520;2023-02-19T12:03:42;6.85;;;4.10;;
77415;SDS011;66489;49.230;8.520;2023-02-19T12:08:47;8.52;;;3.70;;
77415;SDS011;66489;49.230;8.520;2023-02-19T12:23:10;6.22;;;2.90;;
77415;SDS011;66489;49.230;8.520;2023-02-19T12:37:17;5.82;;;2.60;;
77415;SDS011;66489;49.230;8.520;2023-02-19T12:45:15;7.10;;;2.08;;
77415;SDS011;66489;49.230;8.520;2023-02-19T12:47:50;5.68;;;2.10;;
77415;SDS011;66489;49.230;8.520;2023-02-19T12:50:24;4.05;;;1.75;;
77415;SDS011;66489;49.230;8.520;2023-02-19T12:52:56;4.25;;;1.95;;
77415;SDS011;66489;49.230;8.520;2023-02-19T12:55:31;5.60;;;1.92;;
77415;SDS011;66489;49.230;8.520;2023-02-19T12:58:01;5.70;;;2.10;;
77415;SDS011;66489;49.230;8.520;2023-02-19T13:06:16;5.40;;;2.05;;
77415;SDS011;66489;49.230;8.520;2023-02-19T13:08:55;6.10;;;2.35;;
77415;SDS011;66489;49.230;8.520;2023-02-19T13:11:38;6.47;;;2.20;;
77415;SDS011;66489;49.230;8.520;2023-02-19T13:16:43;4.30;;;1.90;;
77415;SDS011;66489;49.230;8.520;2023-02-19T13:19:12;4.82;;;2.40;;
77415;SDS011;66489;49.230;8.520;2023-02-19T13:21:40;7.97;;;2.30;;
77415;SDS011;66489;49.230;8.520;2023-02-19T13:24:30;6.63;;;2.15;;
77415;SDS011;66489;49.230;8.520;2023-02-19T13:35:42;5.63;;;2.25;;
77415;SDS011;66489;49.230;8.520;2023-02-19T13:38:21;6.95;;;2.17;;
77415;SDS011;66489;49.230;8.520;2023-02-19T13:40:52;6.45;;;2.33;;
77415;SDS011;66489;49.230;8.520;2023-02-19T13:45:59;4.95;;;2.40;;
77415;SDS011;66489;49.230;8.520;2023-02-19T13:48:29;6.38;;;2.40;;
77415;SDS011;66489;49.230;8.520;2023-02-19T13:53:58;5.07;;;2.30;;
77415;SDS011;66489;49.230;8.520;2023-02-19T14:04:25;6.00;;;2.30;;
77415;SDS011;66489;49.230;8.520;2023-02-19T14:12:03;6.32;;;2.10;;
77415;SDS011;66489;49.230;8.520;2023-02-19T14:14:44;8.05;;;3.03;;
77415;SDS011;66489;49.230;8.520;2023-02-19T14:17:24;5.13;;;2.33;;
77415;SDS011;66489;49.230;8.520;2023-02-19T14:19:54;5.53;;;2.22;;
77415;SDS011;66489;49.230;8.520;2023-02-19T14:25:20;7.45;;;2.40;;
77415;SDS011;66489;49.230;8.520;2023-02-19T14:27:49;6.68;;;2.40;;
77415;SDS011;66489;49.230;8.520;2023-02-19T14:30:16;6.00;;;2.40;;
77415;SDS011;66489;49.230;8.520;2023-02-19T14:32:44;5.75;;;2.13;;
77415;SDS011;66489;49.230;8.520;2023-02-19T14:35:17;8.57;;;2.33;;
77415;SDS011;66489;49.230;8.520;2023-02-19T14:37:45;7.50;;;2.53;;
77415;SDS011;66489;49.230;8.520;2023-02-19T14:40:58;7.40;;;2.67;;
77415;SDS011;66489;49.230;8.520;2023-02-19T14:43:04;5.38;;;2.20;;
77415;SDS011;66489;49.230;8.520;2023-02-19T14:45:35;6.13;;;2.22;;
77415;SDS011;66489;49.230;8.520;2023-02-19T14:48:08;5.90;;;2.40;;
77415;SDS011;66489;49.230;8.520;2023-02-19T14:50:42;6.55;;;2.20;;
77415;SDS011;66489;49.230;8.520;2023-02-19T14:53:13;5.93;;;2.00;;
77415;SDS011;66489;49.230;8.520;2023-02-19T14:55:41;4.93;;;2.15;;
77415;SDS011;66489;49.230;8.520;2023-02-19T14:58:12;6.78;;;3.00;;
77415;SDS011;66489;49.230;8.520;2023-02-19T15:00:42;6.72;;;3.00;;
77415;SDS011;66489;49.230;8.520;2023-02-19T15:06:05;6.00;;;2.55;;
77415;SDS011;66489;49.230;8.520;2023-02-19T15:08:35;7.93;;;2.47;;
77415;SDS011;66489;49.230;8.520;2023-02-19T15:11:03;5.25;;;2.28;;
77415;SDS011;66489;49.230;8.520;2023-02-19T15:13:35;5.25;;;2.28;;
77415;SDS011;66489;49.230;8.520;2023-02-19T15:16:02;5.38;;;2.13;;
77415;SDS011;66489;49.230;8.520;2023-02-19T15:18:29;5.30;;;2.00;;
77415;SDS011;66489;49.230;8.520;2023-02-19T15:21:01;6.88;;;2.30;;
77415;SDS011;66489;49.230;8.520;2023-02-19T15:23:30;4.97;;;2.20;;
77415;SDS011;66489;49.230;8.520;2023-02-19T15:25:58;7.05;;;2.30;;
77415;SDS011;66489;49.230;8.520;2023-02-19T15:33:25;7.30;;;2.17;;
77415;SDS011;66489;49.230;8.520;2023-02-19T15:35:53;7.72;;;2.00;;
77415;SDS011;66489;49.230;8.520;2023-02-19T15:38:21;6.57;;;2.20;;
77415;SDS011;66489;49.230;8.520;2023-02-19T15:40:47;7.63;;;2.33;;
77415;SDS011;66489;49.230;8.520;2023-02-19T15:45:54;10.10;;;2.88;;
77415;SDS011;66489;49.230;8.520;2023-02-19T15:48:35;8.70;;;3.45;;
77415;SDS011;66489;49.230;8.520;2023-02-19T15:51:12;11.57;;;5.00;;
77415;SDS011;66489;49.230;8.520;2023-02-19T15:53:46;8.68;;;2.67;;
77415;SDS011;66489;49.230;8.520;2023-02-19T15:56:29;6.13;;;2.78;;
77415;SDS011;66489;49.230;8.520;2023-02-19T16:01:26;9.75;;;3.15;;
77415;SDS011;66489;49.230;8.520;2023-02-19T16:03:54;9.70;;;3.30;;
77415;SDS011;66489;49.230;8.520;2023-02-19T16:06:21;9.43;;;2.33;;
77415;SDS011;66489;49.230;8.520;2023-02-19T16:09:04;7.22;;;2.65;;
77415;SDS011;66489;49.230;8.520;2023-02-19T16:11:38;9.13;;;2.97;;
77415;SDS011;66489;49.230;8.520;2023-02-19T16:14:32;7.15;;;2.65;;
77415;SDS011;66489;49.230;8.520;2023-02-19T16:22:09;11.10;;;4.03;;
77415;SDS011;66489;49.230;8.520;2023-02-19T16:24:39;8.25;;;3.10;;
77415;SDS011;66489;49.230;8.520;2023-02-19T16:27:11;8.57;;;3.00;;
77415;SDS011;66489;49.230;8.520;2023-02-19T16:29:39;8.98;;;3.20;;
77415;SDS011;66489;49.230;8.520;2023-02-19T16:32:06;8.15;;;2.78;;
77415;SDS011;66489;49.230;8.520;2023-02-19T16:34:40;9.70;;;3.50;;
77415;SDS011;66489;49.230;8.520;2023-02-19T16:40:04;9.13;;;2.70;;
77415;SDS011;66489;49.230;8.520;2023-02-19T16:45:15;7.82;;;3.08;;
77415;SDS011;66489;49.230;8.520;2023-02-19T16:47:42;11.13;;;4.60;;
77415;SDS011;66489;49.230;8.520;2023-02-19T16:50:14;9.63;;;4.47;;
77415;SDS011;66489;49.230;8.520;2023-02-19T16:52:52;8.77;;;3.72;;
77415;SDS011;66489;49.230;8.520;2023-02-19T16:55:23;8.38;;;3.90;;
77415;SDS011;66489;49.230;8.520;2023-02-19T16:57:50;8.18;;;3.70;;
77415;SDS011;66489;49.230;8.520;2023-02-19T17:00:18;10.10;;;3.90;;
77415;SDS011;66489;49.230;8.520;2023-02-19T17:02:50;9.02;;;3.50;;
77415;SDS011;66489;49.230;8.520;2023-02-19T17:05:18;9.68;;;4.57;;
77415;SDS011;66489;49.230;8.520;2023-02-19T17:07:45;8.98;;;4.40;;
77415;SDS011;66489;49.230;8.520;2023-02-19T17:10:13;12.93;;;4.75;;
77415;SDS011;66489;49.230;8.520;2023-02-19T17:12:42;10.68;;;4.32;;
77415;SDS011;66489;49.230;8.520;2023-02-19T17:15:08;9.75;;;4.50;;
77415;SDS011;66489;49.230;8.520;2023-02-19T17:17:36;12.93;;;4.38;;
77415;SDS011;66489;49.230;8.520;2023-02-19T17:20:11;11.52;;;4.30;;
77415;SDS011;66489;49.230;8.520;2023-02-19T17:22:45;11.43;;;4.35;;
77415;SDS011;66489;49.230;8.520;2023-02-19T17:25:12;9.43;;;4.22;;
77415;SDS011;66489;49.230;8.520;2023-02-19T17:27:38;13.50;;;4.63;;
77415;SDS011;66489;49.230;8.520;2023-02-19T17:30:14;9.55;;;4.30;;
77415;SDS011;66489;49.230;8.520;2023-02-19T17:32:44;10.45;;;3.85;;
77415;SDS011;66489;49.230;8.520;2023-02-19T17:35:11;9.57;;;3.80;;
77415;SDS011;66489;49.230;8.520;2023-02-19T17:37:38;8.00;;;3.80;;
77415;SDS011;66489;49.230;8.520;2023-02-19T17:40:11;9.65;;;3.83;;
77415;SDS011;66489;49.230;8.520;2023-02-19T17:42:58;8.27;;;3.30;;
77415;SDS011;66489;49.230;8.520;2023-02-19T17:45:24;9.60;;;2.75;;
77415;SDS011;66489;49.230;8.520;2023-02-19T17:47:51;7.78;;;2.95;;
77415;SDS011;66489;49.230;8.520;2023-02-19T17:50:22;7.35;;;3.10;;
77415;SDS011;66489;49.230;8.520;2023-02-19T17:52:51;14.23;;;6.40;;
77415;SDS011;66489;49.230;8.520;2023-02-19T17:55:18;8.00;;;2.65;;
77415;SDS011;66489;49.230;8.520;2023-02-19T17:57:45;8.02;;;4.82;;
77415;SDS011;66489;49.230;8.520;2023-02-19T18:00:13;7.72;;;3.47;;
77415;SDS011;66489;49.230;8.520;2023-02-19T18:02:41;12.23;;;5.23;;
77415;SDS011;66489;49.230;8.520;2023-02-19T18:05:08;16.48;;;8.00;;
77415;SDS011;66489;49.230;8.520;2023-02-19T18:07:34;22.13;;;9.88;;
77415;SDS011;66489;49.230;8.520;2023-02-19T18:10:01;17.27;;;9.25;;
77415;SDS011;66489;49.230;8.520;2023-02-19T18:12:28;20.48;;;9.48;;
77415;SDS011;66489;49.230;8.520;2023-02-19T18:14:55;9.45;;;4.70;;
77415;SDS011;66489;49.230;8.520;2023-02-19T18:17:22;8.05;;;3.10;;
77415;SDS011;66489;49.230;8.520;2023-02-19T18:19:50;7.10;;;2.70;;
77415;SDS011;66489;49.230;8.520;2023-02-19T18:22:17;9.13;;;2.80;;
77415;SDS011;66489;49.230;8.520;2023-02-19T18:24:47;8.30;;;3.15;;
77415;SDS011;66489;49.230;8.520;2023-02-19T18:27:14;7.25;;;3.55;;
77415;SDS011;66489;49.230;8.520;2023-02-19T18:29:41;9.77;;;3.10;;
77415;SDS011;66489;49.230;8.520;2023-02-19T18:32:11;8.65;;;3.60;;
77415;SDS011;66489;49.230;8.520;2023-02-19T18:37:04;11.35;;;3.90;;
77415;SDS011;66489;49.230;8.520;2023-02-19T18:39:31;10.32;;;4.43;;
77415;SDS011;66489;49.230;8.520;2023-02-19T18:41:58;10.13;;;4.35;;
77415;SDS011;66489;49.230;8.520;2023-02-19T18:44:26;9.02;;;3.55;;
77415;SDS011;66489;49.230;8.520;2023-02-19T18:46:52;10.43;;;3.40;;
77415;SDS011;66489;49.230;8.520;2023-02-19T18:49:19;9.50;;;4.03;;
77415;SDS011;66489;49.230;8.520;2023-02-19T18:51:46;8.10;;;3.53;;
77415;SDS011;66489;49.230;8.520;2023-02-19T18:54:12;12.32;;;4.93;;
77415;SDS011;66489;49.230;8.520;2023-02-19T18:56:40;10.95;;;5.00;;
77415;SDS011;66489;49.230;8.520;2023-02-19T18:59:09;12.32;;;4.72;;
77415;SDS011;66489;49.230;8.520;2023-02-19T19:01:37;10.68;;;4.80;;
77415;SDS011;66489;49.230;8.520;2023-02-19T19:04:03;9.98;;;4.72;;
77415;SDS011;66489;49.230;8.520;2023-02-19T19:06:30;12.30;;;4.70;;
77415;SDS011;66489;49.230;8.520;2023-02-19T19:08:58;10.50;;;4.40;;
77415;SDS011;66489;49.230;8.520;2023-02-19T19:11:24;9.95;;;3.42;;
77415;SDS011;66489;49.230;8.520;2023-02-19T19:13:51;9.55;;;4.15;;
77415;SDS011;66489;49.230;8.520;2023-02-19T19:16:21;14.60;;;5.10;;
77415;SDS011;66489;49.230;8.520;2023-02-19T19:18:48;16.17;;;7.47;;
77415;SDS011;66489;49.230;8.520;2023-02-19T19:21:15;25.50;;;10.25;;
77415;SDS011;66489;49.230;8.520;2023-02-19T19:23:42;28.48;;;14.20;;
77415;SDS011;66489;49.230;8.520;2023-02-19T19:26:09;28.15;;;12.13;;
77415;SDS011;66489;49.230;8.520;2023-02-19T19:28:37;25.45;;;11.13;;
77415;SDS011;66489;49.230;8.520;2023-02-19T19:31:10;15.52;;;8.48;;
77415;SDS011;66489;49.230;8.520;2023-02-19T19:33:38;22.42;;;10.50;;
77415;SDS011;66489;49.230;8.520;2023-02-19T19:36:07;17.23;;;8.57;;
77415;SDS011;66489;49.230;8.520;2023-02-19T19:38:34;20.45;;;9.20;;
77415;SDS011;66489;49.230;8.520;2023-02-19T19:41:01;18.02;;;8.95;;
77415;SDS011;66489;49.230;8.520;2023-02-19T19:43:28;17.73;;;8.13;;
77415;SDS011;66489;49.230;8.520;2023-02-19T19:45:55;15.52;;;7.10;;
77415;SDS011;66489;49.230;8.520;2023-02-19T19:48:23;13.55;;;7.70;;
77415;SDS011;66489;49.230;8.520;2023-02-19T19:50:52;15.70;;;8.68;;
77415;SDS011;66489;49.230;8.520;2023-02-19T19:53:19;16.85;;;7.10;;
77415;SDS011;66489;49.230;8.520;2023-02-19T19:55:46;16.90;;;8.27;;
77415;SDS011;66489;49.230;8.520;2023-02-19T19:58:12;13.13;;;5.95;;
77415;SDS011;66489;49.230;8.520;2023-02-19T20:00:39;11.50;;;4.65;;
77415;SDS011;66489;49.230;8.520;2023-02-19T20:03:05;11.45;;;4.63;;
77415;SDS011;66489;49.230;8.520;2023-02-19T20:05:32;13.23;;;4.88;;
77415;SDS011;66489;49.230;8.520;2023-02-19T20:07:59;11.32;;;4.45;;
77415;SDS011;66489;49.230;8.520;2023-02-19T20:10:25;10.38;;;3.95;;
77415;SDS011;66489;49.230;8.520;2023-02-19T20:12:52;9.10;;;3.80;;
77415;SDS011;66489;49.230;8.520;2023-02-19T20:15:19;13.27;;;4.63;;
77415;SDS011;66489;49.230;8.520;2023-02-19T20:17:47;13.50;;;4.55;;
77415;SDS011;66489;49.230;8.520;2023-02-19T20:20:15;16.33;;;4.57;;
77415;SDS011;66489;49.230;8.520;2023-02-19T20:22:45;20.23;;;5.72;;
77415;SDS011;66489;49.230;8.520;2023-02-19T20:25:11;18.25;;;4.65;;
77415;SDS011;66489;49.230;8.520;2023-02-19T20:27:38;13.50;;;4.22;;
77415;SDS011;66489;49.230;8.520;2023-02-19T20:30:05;12.93;;;4.45;;
77415;SDS011;66489;49.230;8.520;2023-02-19T20:32:35;14.68;;;5.13;;
77415;SDS011;66489;49.230;8.520;2023-02-19T20:35:01;16.98;;;5.25;;
77415;SDS011;66489;49.230;8.520;2023-02-19T20:37:28;14.55;;;5.43;;
77415;SDS011;66489;49.230;8.520;2023-02-19T20:39:55;16.17;;;5.25;;
77415;SDS011;66489;49.230;8.520;2023-02-19T20:42:21;10.85;;;4.45;;
77415;SDS011;66489;49.230;8.520;2023-02-19T20:44:48;10.32;;;4.38;;
77415;SDS011;66489;49.230;8.520;2023-02-19T20:47:15;11.45;;;4.43;;
77415;SDS011;66489;49.230;8.520;2023-02-19T20:49:44;9.35;;;3.95;;
77415;SDS011;66489;49.230;8.520;2023-02-19T20:52:13;13.60;;;3.60;;
77415;SDS011;66489;49.230;8.520;2023-02-19T20:54:41;7.13;;;3.08;;
77415;SDS011;66489;49.230;8.520;2023-02-19T20:57:09;9.40;;;4.03;;
77415;SDS011;66489;49.230;8.520;2023-02-19T20:59:36;11.73;;;5.00;;
77415;SDS011;66489;49.230;8.520;2023-02-19T21:02:05;12.98;;;5.60;;
77415;SDS011;66489;49.230;8.520;2023-02-19T21:04:57;12.25;;;6.38;;
77415;SDS011;66489;49.230;8.520;2023-02-19T21:07:24;12.57;;;6.90;;
77415;SDS011;66489;49.230;8.520;2023-02-19T21:09:51;14.80;;;7.50;;
77415;SDS011;66489;49.230;8.520;2023-02-19T21:12:19;13.90;;;7.35;;
77415;SDS011;66489;49.230;8.520;2023-02-19T21:14:47;15.85;;;7.55;;
77415;SDS011;66489;49.230;8.520;2023-02-19T21:17:14;13.20;;;6.90;;
77415;SDS011;66489;49.230;8.520;2023-02-19T21:19:41;12.90;;;6.28;;
77415;SDS011;66489;49.230;8.520;2023-02-19T21:22:08;12.38;;;5.40;;
77415;SDS011;66489;49.230;8.520;2023-02-19T21:24:34;10.38;;;4.63;;
77415;SDS011;66489;49.230;8.520;2023-02-19T21:27:01;12.32;;;5.80;;
77415;SDS011;66489;49.230;8.520;2023-02-19T21:29:27;12.25;;;5.03;;
77415;SDS011;66489;49.230;8.520;2023-02-19T21:31:55;10.38;;;4.85;;
77415;SDS011;66489;49.230;8.520;2023-02-19T21:34:24;10.18;;;5.63;;
77415;SDS011;66489;49.230;8.520;2023-02-19T21:36:52;12.63;;;5.03;;
77415;SDS011;66489;49.230;8.520;2023-02-19T21:39:19;12.68;;;5.05;;
77415;SDS011;66489;49.230;8.520;2023-02-19T21:41:47;7.50;;;4.60;;
77415;SDS011;66489;49.230;8.520;2023-02-19T21:44:14;10.75;;;4.28;;
77415;SDS011;66489;49.230;8.520;2023-02-19T21:46:46;10.02;;;3.75;;
77415;SDS011;66489;49.230;8.520;2023-02-19T21:49:16;8.30;;;3.40;;
77415;SDS011;66489;49.230;8.520;2023-02-19T21:51:43;9.45;;;3.10;;
77415;SDS011;66489;49.230;8.520;2023-02-19T21:54:14;9.70;;;2.83;;
77415;SDS011;66489;49.230;8.520;2023-02-19T21:56:42;9.38;;;2.95;;
77415;SDS011;66489;49.230;8.520;2023-02-19T21:59:08;7.68;;;2.75;;
